Time;durP1;ratioP1;P1;durP2;ratioP2;P2;SDS_P1;SDS_P2;PMS_P1;PMS_P2;Temp;Humidity;BMP_temperature;BMP_pressure;BME280_temperature;BME280_humidity;BME280_pressure;Samples;Min_cycle;Max_cycle;Signal;HPM_P1;HPM_P2
2023/06/19 00:00:52;;;;;;;;;;;;;;;21.74;59.66;100815.75;5117214;27;19968;-49
2023/06/19 00:03:18;;;;;;;;;;;;;;;21.74;59.06;100815.75;5115439;27;19916;-48
2023/06/19 00:05:43;;;;;;;;;;;;;;;21.67;60.17;100813.25;5115137;27;19969;-46
2023/06/19 00:08:08;;;;;;;;;;;;;;;21.61;61.03;100816.00;5108489;27;19927;-49
2023/06/19 00:10:33;;;;;;;;;;;;;;;21.51;60.93;100816.19;5114043;27;19919;-48
2023/06/19 00:12:59;;;;;;;;;;;;;;;21.46;60.67;100821.47;5115442;27;20010;-47
2023/06/19 00:15:24;;;;;;;;;;;;;;;21.38;61.73;100816.38;5110342;28;19973;-49
2023/06/19 00:17:49;;;;;;;;;;;;;;;21.33;61.27;100825.19;5094272;28;19922;-44
2023/06/19 00:20:14;;;;;;;;;;;;;;;21.27;61.52;100830.50;5120820;27;19923;-47
2023/06/19 00:22:40;;;;;;;;;;;;;;;21.22;62.27;100833.19;5112781;27;19916;-46
2023/06/19 00:25:06;;;;;;;;;;;;;;;21.19;62.00;100835.00;5113390;27;19926;-49
2023/06/19 00:27:31;;;;;;;;;;;;;;;21.13;61.96;100834.22;5121096;27;19919;-48
2023/06/19 00:30:01;;;;;;;;;;;;;;;21.10;62.53;100841.22;5116758;27;19923;-48
2023/06/19 00:32:27;;;;;;;;;;;;;;;21.05;61.05;100848.28;5108155;28;20293;-46
2023/06/19 00:34:52;;;;;;;;;;;;;;;20.97;62.13;100845.78;5113056;27;20445;-47
2023/06/19 00:37:18;;;;;;;;;;;;;;;20.92;63.14;100857.19;5118728;27;19919;-49
2023/06/19 00:39:43;;;;;;;;;;;;;;;20.85;61.70;100859.03;5084765;27;20332;-49
2023/06/19 00:42:08;;;;;;;;;;;;;;;20.77;62.43;100861.75;5109206;27;19919;-48
2023/06/19 00:44:33;;;;;;;;;;;;;;;20.71;63.05;100863.59;5109258;27;19924;-44
2023/06/19 00:47:01;;;;;;;;;;;;;;;20.65;64.41;100868.91;5110646;28;19962;-46
2023/06/19 00:49:27;;;;;;;;;;;;;;;20.58;63.65;100873.34;5112340;28;19915;-47
2023/06/19 00:51:53;;;;;;;;;;;;;;;20.50;64.92;100867.34;5108202;28;19920;-47
2023/06/19 00:54:19;;;;;;;;;;;;;;;20.45;64.26;100872.63;5111282;28;20006;-47
2023/06/19 00:56:44;;;;;;;;;;;;;;;20.42;64.99;100871.78;5110582;28;19956;-49
2023/06/19 00:59:14;;;;;;;;;;;;;;;20.38;63.74;100876.16;5109988;28;20018;-49
2023/06/19 01:01:39;;;;;;;;;;;;;;;20.35;65.58;100874.47;5113556;28;20005;-49
2023/06/19 01:04:05;;;;;;;;;;;;;;;20.31;66.52;100883.19;5100184;28;19927;-44
2023/06/19 01:06:38;;;;;;;;;;;;;;;20.31;65.14;100880.59;5117134;28;20406;-46
2023/06/19 01:09:07;;;;;;;;;;;;;;;20.30;66.50;100880.63;5109037;28;19998;-47
2023/06/19 01:11:36;;;;;;;;;;;;;;;20.23;65.91;100890.25;5089875;28;20336;-46
2023/06/19 01:14:30;;;;;;;;;;;;;;;20.20;66.40;100892.03;5121864;28;19919;-46
2023/06/19 01:16:56;;;;;;;;;;;;;;;20.15;68.33;100889.50;5089431;28;19946;-46
2023/06/19 01:19:21;;;;;;;;;;;;;;;20.12;68.94;100892.13;5112491;28;20366;-46
2023/06/19 01:21:47;;;;;;;;;;;;;;;20.05;68.23;100893.94;5119087;28;19912;-45
2023/06/19 01:24:12;;;;;;;;;;;;;;;20.01;68.00;100893.97;5118327;28;19901;-47
2023/06/19 01:26:38;;;;;;;;;;;;;;;19.96;68.91;100894.06;5121061;28;20271;-45
2023/06/19 01:29:04;;;;;;;;;;;;;;;19.91;68.66;100897.59;5113463;27;19919;-45
2023/06/19 01:31:42;;;;;;;;;;;;;;;19.85;68.56;100895.91;5111620;27;19916;-43
2023/06/19 01:34:08;;;;;;;;;;;;;;;19.81;70.18;100900.25;5117382;27;19935;-45
2023/06/19 01:36:34;;;;;;;;;;;;;;;19.76;70.24;100893.34;5113322;28;20018;-44
2023/06/19 01:38:59;;;;;;;;;;;;;;;19.74;72.15;100903.81;5121317;27;20013;-48
2023/06/19 01:41:25;;;;;;;;;;;;;;;19.74;70.58;100906.41;5124103;27;20413;-44
2023/06/19 01:43:51;;;;;;;;;;;;;;;19.73;70.05;100909.91;5122641;27;20217;-46
2023/06/19 01:46:16;;;;;;;;;;;;;;;19.76;71.75;100915.09;5116470;27;19916;-45
2023/06/19 01:48:41;;;;;;;;;;;;;;;19.73;72.63;100911.66;5123798;27;20319;-46
2023/06/19 01:51:07;;;;;;;;;;;;;;;19.71;72.22;100905.56;5116417;27;19912;-50
2023/06/19 01:53:33;;;;;;;;;;;;;;;19.71;73.91;100916.00;5098374;28;20002;-46
2023/06/19 01:55:59;;;;;;;;;;;;;;;19.70;69.17;100916.88;5113905;27;19923;-46
2023/06/19 01:58:24;;;;;;;;;;;;;;;19.62;72.24;100921.31;5114130;27;19920;-48
2023/06/19 02:00:49;;;;;;;;;;;;;;;19.61;71.95;100920.47;5116019;27;19920;-45
2023/06/19 02:03:14;;;;;;;;;;;;;;;19.51;70.85;100921.34;5119712;27;19928;-46
2023/06/19 02:05:40;;;;;;;;;;;;;;;19.44;73.21;100933.59;5106957;28;20415;-47
2023/06/19 02:08:06;;;;;;;;;;;;;;;19.37;75.17;100925.81;5118948;27;20031;-46
2023/06/19 02:10:31;;;;;;;;;;;;;;;19.31;73.93;100921.50;5115407;27;19900;-48
2023/06/19 02:12:57;;;;;;;;;;;;;;;19.30;75.11;100922.41;5122879;27;19931;-46
2023/06/19 02:15:22;;;;;;;;;;;;;;;19.28;76.36;100930.19;5116129;27;19927;-45
2023/06/19 02:17:47;;;;;;;;;;;;;;;19.28;76.36;100930.19;5121358;27;19981;-45
2023/06/19 02:20:13;;;;;;;;;;;;;;;19.27;77.02;100938.03;5123090;27;19916;-44
2023/06/19 02:22:38;;;;;;;;;;;;;;;19.31;75.76;100936.28;5115519;27;19920;-44
2023/06/19 02:25:04;;;;;;;;;;;;;;;19.30;75.40;100938.03;5123292;27;19926;-51
2023/06/19 02:27:29;;;;;;;;;;;;;;;19.29;79.54;100937.19;5115516;27;20262;-48
2023/06/19 02:29:54;;;;;;;;;;;;;;;19.29;80.07;100931.06;5108544;27;19919;-46
2023/06/19 02:32:20;;;;;;;;;;;;;;;19.29;80.71;100937.19;5108155;27;19919;-45
2023/06/19 02:34:45;;;;;;;;;;;;;;;19.29;79.53;100936.28;5111815;28;20377;-46
2023/06/19 02:37:10;;;;;;;;;;;;;;;19.27;79.10;100933.69;5107991;28;20278;-46
2023/06/19 02:39:36;;;;;;;;;;;;;;;19.25;77.58;100927.63;5094974;28;19950;-45
2023/06/19 02:42:01;;;;;;;;;;;;;;;19.21;79.18;100928.53;5121956;27;19968;-47
2023/06/19 02:44:26;;;;;;;;;;;;;;;19.13;82.19;100932.94;5119542;27;19912;-44
2023/06/19 02:46:51;;;;;;;;;;;;;;;19.12;79.06;100931.19;5125090;27;19963;-46
2023/06/19 02:49:17;;;;;;;;;;;;;;;19.00;80.06;100937.34;5117706;27;19912;-47
2023/06/19 02:51:42;;;;;;;;;;;;;;;18.96;83.43;100922.59;5110798;28;19945;-46
2023/06/19 02:54:07;;;;;;;;;;;;;;;18.92;83.35;100935.63;5118689;27;19916;-45
2023/06/19 02:56:32;;;;;;;;;;;;;;;18.85;83.11;100934.81;5113967;27;20433;-45
2023/06/19 02:58:58;;;;;;;;;;;;;;;18.78;85.36;100940.91;5114782;27;19915;-45
2023/06/19 03:01:23;;;;;;;;;;;;;;;18.73;85.84;100951.34;5110906;27;19939;-48
2023/06/19 03:03:49;;;;;;;;;;;;;;;18.70;82.41;100946.16;5109725;27;19965;-46
2023/06/19 03:06:14;;;;;;;;;;;;;;;18.64;86.23;100950.50;5105184;28;19967;-47
2023/06/19 03:08:39;;;;;;;;;;;;;;;18.60;88.26;100952.25;5108474;28;20266;-48
2023/06/19 03:11:05;;;;;;;;;;;;;;;18.54;87.59;100957.47;5107275;28;19916;-47
2023/06/19 03:13:47;;;;;;;;;;;;;;;18.52;86.35;100954.00;5105115;28;19915;-45
2023/06/19 03:16:14;;;;;;;;;;;;;;;18.44;85.37;100953.16;5106302;27;19927;-48
2023/06/19 03:18:39;;;;;;;;;;;;;;;18.43;90.05;100961.84;5104602;27;19968;-46
2023/06/19 03:21:05;;;;;;;;;;;;;;;18.35;90.40;100959.25;5120488;27;19920;-48
2023/06/19 03:23:30;;;;;;;;;;;;;;;18.34;89.18;100967.09;5116550;27;19915;-45
2023/06/19 03:25:57;;;;;;;;;;;;;;;18.33;89.34;100970.56;5119597;27;19920;-45
2023/06/19 03:28:22;;;;;;;;;;;;;;;18.30;89.74;100968.81;5115463;27;19973;-45
2023/06/19 03:30:47;;;;;;;;;;;;;;;18.27;91.64;100973.19;5117214;27;19951;-44
2023/06/19 03:33:12;;;;;;;;;;;;;;;18.25;91.43;100970.56;5113933;27;19921;-48
2023/06/19 03:35:37;;;;;;;;;;;;;;;18.25;88.06;100980.09;5113325;27;20598;-45
2023/06/19 03:38:03;;;;;;;;;;;;;;;18.23;90.16;100980.09;5116823;27;20377;-47
2023/06/19 03:40:28;;;;;;;;;;;;;;;18.27;92.33;100980.97;5113666;27;19927;-47
2023/06/19 03:42:54;;;;;;;;;;;;;;;18.29;92.23;100984.44;5111997;27;19916;-45
2023/06/19 03:45:19;;;;;;;;;;;;;;;18.34;90.26;100993.97;5117017;27;19912;-45
2023/06/19 03:47:44;;;;;;;;;;;;;;;18.37;91.89;100988.75;5111782;27;20286;-47
2023/06/19 03:50:10;;;;;;;;;;;;;;;18.44;92.55;101000.91;5116472;27;19916;-44
2023/06/19 03:52:38;;;;;;;;;;;;;;;18.44;91.98;101005.22;5110300;27;19997;-46
2023/06/19 03:55:03;;;;;;;;;;;;;;;18.47;89.57;101008.69;5109288;28;20290;-57
2023/06/19 03:57:29;;;;;;;;;;;;;;;18.47;91.90;101000.88;5100626;27;19920;-59
2023/06/19 03:59:54;;;;;;;;;;;;;;;18.52;92.13;101010.44;5101179;28;19919;-46
2023/06/19 04:02:19;;;;;;;;;;;;;;;18.50;92.24;101002.59;5120098;27;19965;-44
2023/06/19 04:04:45;;;;;;;;;;;;;;;18.54;92.93;101008.69;5111985;27;20010;-45
2023/06/19 04:07:10;;;;;;;;;;;;;;;18.54;92.30;101004.34;5115800;27;19977;-48
2023/06/19 04:09:35;;;;;;;;;;;;;;;18.63;88.03;101008.69;5115163;27;20028;-44
2023/06/19 04:12:01;;;;;;;;;;;;;;;18.54;92.28;101009.53;5117164;27;19912;-46
2023/06/19 04:14:26;;;;;;;;;;;;;;;18.53;92.61;101015.63;5117142;27;19923;-48
2023/06/19 04:16:51;;;;;;;;;;;;;;;18.52;92.30;101019.13;5111234;27;20056;-45
2023/06/19 04:19:16;;;;;;;;;;;;;;;18.59;92.61;101031.25;5110742;27;19926;-47
2023/06/19 04:21:42;;;;;;;;;;;;;;;18.59;92.59;101036.47;5108868;27;19920;-47
2023/06/19 04:24:08;;;;;;;;;;;;;;;18.60;93.67;101034.72;5092365;28;19970;-47
2023/06/19 04:26:34;;;;;;;;;;;;;;;18.60;93.34;101040.78;5106101;28;19924;-45
2023/06/19 04:29:00;;;;;;;;;;;;;;;18.59;92.83;101036.47;5108378;27;20473;-44
2023/06/19 04:31:26;;;;;;;;;;;;;;;18.58;93.16;101041.69;5104275;27;19924;-47
2023/06/19 04:33:52;;;;;;;;;;;;;;;18.58;93.88;101049.50;5109042;28;19919;-47
2023/06/19 04:36:17;;;;;;;;;;;;;;;18.62;94.07;101049.44;5118129;27;20401;-46
2023/06/19 04:38:43;;;;;;;;;;;;;;;18.60;92.11;101046.00;5115726;27;20010;-47
2023/06/19 04:41:09;;;;;;;;;;;;;;;18.60;94.95;101056.41;5112460;28;19931;-44
2023/06/19 04:43:34;;;;;;;;;;;;;;;18.61;93.14;101050.31;5114739;27;19912;-44
2023/06/19 04:45:59;;;;;;;;;;;;;;;18.64;94.44;101058.16;5112754;28;19916;-45
2023/06/19 04:48:25;;;;;;;;;;;;;;;18.63;93.01;101061.63;5121381;27;19958;-43
2023/06/19 04:50:51;;;;;;;;;;;;;;;18.65;92.74;101069.44;5120751;28;20885;-44
2023/06/19 04:53:16;;;;;;;;;;;;;;;18.64;94.85;101063.38;5112694;28;19916;-46
2023/06/19 04:55:43;;;;;;;;;;;;;;;18.66;94.68;101065.94;5113362;28;19920;-45
2023/06/19 04:58:08;;;;;;;;;;;;;;;18.72;95.26;101064.22;5100933;28;19926;-45
2023/06/19 05:00:34;;;;;;;;;;;;;;;18.73;94.61;101060.75;5116339;28;20002;-45
2023/06/19 05:03:00;;;;;;;;;;;;;;;18.70;94.51;101058.16;5111552;28;19915;-47
2023/06/19 05:05:26;;;;;;;;;;;;;;;18.72;95.32;101060.75;5112896;28;19927;-45
2023/06/19 05:07:52;;;;;;;;;;;;;;;18.75;95.89;101063.38;5114912;27;19926;-47
2023/06/19 05:10:17;;;;;;;;;;;;;;;18.77;97.32;101058.16;5119765;27;19915;-47
2023/06/19 05:12:42;;;;;;;;;;;;;;;18.78;98.09;101060.75;5112468;28;20100;-48
2023/06/19 05:15:08;;;;;;;;;;;;;;;18.80;96.24;101071.16;5098883;28;19927;-44
2023/06/19 05:17:33;;;;;;;;;;;;;;;18.86;95.72;101069.41;5103964;27;20009;-48
2023/06/19 05:19:58;;;;;;;;;;;;;;;18.86;96.73;101066.78;5118646;27;19923;-46
2023/06/19 05:22:24;;;;;;;;;;;;;;;18.92;94.88;101066.78;5110809;27;20376;-45
2023/06/19 05:24:49;;;;;;;;;;;;;;;18.95;96.09;101071.13;5121123;27;20006;-50
2023/06/19 05:27:14;;;;;;;;;;;;;;;18.99;94.76;101081.56;5118318;27;19941;-45
2023/06/19 05:29:40;;;;;;;;;;;;;;;19.07;96.15;101083.25;5089591;27;20370;-47
2023/06/19 05:32:05;;;;;;;;;;;;;;;19.03;95.44;101087.59;5116845;27;20004;-47
2023/06/19 05:34:30;;;;;;;;;;;;;;;19.05;94.47;101091.09;5110272;27;19924;-45
2023/06/19 05:36:55;;;;;;;;;;;;;;;19.07;95.28;101085.88;5113910;28;20473;-46
2023/06/19 05:39:21;;;;;;;;;;;;;;;19.10;96.54;101094.53;5114413;28;19916;-47
2023/06/19 05:41:46;;;;;;;;;;;;;;;19.14;96.36;101090.19;5114160;27;19927;-46
2023/06/19 05:44:15;;;;;;;;;;;;;;;19.21;96.97;101091.88;5114266;27;19919;-43
2023/06/19 05:46:41;;;;;;;;;;;;;;;19.26;92.22;101091.00;5109036;27;19916;-45
2023/06/19 05:49:06;;;;;;;;;;;;;;;19.31;95.01;101090.13;5113834;27;20289;-44
2023/06/19 05:51:31;;;;;;;;;;;;;;;19.39;96.14;101085.72;5123364;27;20369;-48
2023/06/19 05:54:01;;;;;;;;;;;;;;;19.53;93.37;101100.41;5112312;27;20317;-44
2023/06/19 05:56:26;;;;;;;;;;;;;;;19.58;92.98;101096.94;5114456;27;20300;-45
2023/06/19 05:58:51;;;;;;;;;;;;;;;19.71;90.93;101106.44;5116253;27;20377;-46
2023/06/19 06:01:17;;;;;;;;;;;;;;;19.82;89.67;101100.28;5107692;28;19915;-50
2023/06/19 06:03:43;;;;;;;;;;;;;;;20.05;88.80;101092.31;5091669;28;20335;-44
2023/06/19 06:06:08;;;;;;;;;;;;;;;20.47;86.86;101097.25;5114143;28;19959;-45
2023/06/19 06:08:34;;;;;;;;;;;;;;;20.98;84.13;101095.84;5101065;28;19919;-44
2023/06/19 06:10:59;;;;;;;;;;;;;;;21.35;82.22;101108.53;5107196;27;19923;-46
2023/06/19 06:13:24;;;;;;;;;;;;;;;21.40;77.92;101110.19;5113800;27;19920;-46
2023/06/19 06:15:50;;;;;;;;;;;;;;;21.45;77.88;101119.75;5115528;27;19957;-46
2023/06/19 06:18:16;;;;;;;;;;;;;;;21.48;77.48;101127.53;5112876;27;19934;-46
2023/06/19 06:20:41;;;;;;;;;;;;;;;21.69;77.52;101125.50;5116431;27;19916;-48
2023/06/19 06:23:06;;;;;;;;;;;;;;;21.97;76.01;101127.75;5118330;27;19916;-45
2023/06/19 06:25:31;;;;;;;;;;;;;;;22.32;72.84;101132.47;5110500;27;19916;-47
2023/06/19 06:27:57;;;;;;;;;;;;;;;22.56;73.00;101138.19;5095987;28;19922;-49
2023/06/19 06:30:23;;;;;;;;;;;;;;;22.77;71.42;101136.97;5113470;27;19977;-45
2023/06/19 06:32:48;;;;;;;;;;;;;;;22.87;70.91;101139.44;5110924;27;19915;-45
2023/06/19 06:35:14;;;;;;;;;;;;;;;22.91;69.86;101148.94;5112259;27;19927;-48
2023/06/19 06:37:39;;;;;;;;;;;;;;;23.11;69.16;101142.47;5107302;27;19923;-48
2023/06/19 06:40:09;;;;;;;;;;;;;;;23.36;70.34;101146.34;5109890;27;19927;-50
2023/06/19 06:42:34;;;;;;;;;;;;;;;23.43;66.25;101142.69;5110897;28;19919;-48
2023/06/19 06:44:59;;;;;;;;;;;;;;;23.49;68.22;101160.94;5106228;28;19916;-49
2023/06/19 06:47:25;;;;;;;;;;;;;;;23.54;68.31;101158.22;5107358;28;19920;-50
2023/06/19 06:49:50;;;;;;;;;;;;;;;23.54;65.91;101158.22;5106490;27;19916;-48
2023/06/19 06:52:15;;;;;;;;;;;;;;;23.27;66.78;101167.50;5118201;27;19915;-47
2023/06/19 06:54:40;;;;;;;;;;;;;;;23.09;67.26;101165.25;5123235;27;19915;-49
2023/06/19 06:57:06;;;;;;;;;;;;;;;23.05;67.31;101177.53;5123179;27;19979;-48
2023/06/19 06:59:31;;;;;;;;;;;;;;;22.95;66.62;101176.00;5118193;27;19911;-50
2023/06/19 07:01:56;;;;;;;;;;;;;;;22.86;65.17;101184.84;5118484;27;19992;-51
2023/06/19 07:04:22;;;;;;;;;;;;;;;22.77;64.55;101177.16;5115906;27;19923;-50
2023/06/19 07:06:47;;;;;;;;;;;;;;;22.74;67.15;101177.19;5100972;28;19920;-47
2023/06/19 07:09:14;;;;;;;;;;;;;;;22.79;66.45;101180.59;5119189;27;20013;-48
2023/06/19 07:11:39;;;;;;;;;;;;;;;22.85;65.77;101177.00;5110708;28;20006;-51
2023/06/19 07:14:04;;;;;;;;;;;;;;;23.06;66.60;101186.28;5111141;28;20377;-50
2023/06/19 07:16:29;;;;;;;;;;;;;;;23.57;63.99;101183.53;5112824;27;19919;-51
2023/06/19 07:18:55;;;;;;;;;;;;;;;23.79;63.29;101187.50;5116505;27;19919;-47
2023/06/19 07:21:20;;;;;;;;;;;;;;;23.91;62.74;101197.72;5096423;28;19974;-49
2023/06/19 07:23:47;;;;;;;;;;;;;;;23.90;62.14;101190.72;5110117;28;19915;-48
2023/06/19 07:26:12;;;;;;;;;;;;;;;23.92;62.46;101194.19;5116596;27;19957;-49
2023/06/19 07:28:38;;;;;;;;;;;;;;;23.86;61.93;101202.22;5112438;27;19915;-49
2023/06/19 07:31:03;;;;;;;;;;;;;;;23.96;62.81;101205.47;5117338;27;19915;-49
2023/06/19 07:33:29;;;;;;;;;;;;;;;24.16;62.73;101202.44;5106275;27;19919;-48
2023/06/19 07:35:54;;;;;;;;;;;;;;;24.39;62.40;101213.31;5113943;27;20382;-47
2023/06/19 07:38:20;;;;;;;;;;;;;;;24.48;61.49;101217.47;5115270;27;19991;-49
2023/06/19 07:40:45;;;;;;;;;;;;;;;24.39;61.14;101221.19;5097316;28;20421;-45
2023/06/19 07:43:10;;;;;;;;;;;;;;;24.20;60.01;101222.47;5120031;27;19919;-50
2023/06/19 07:45:35;;;;;;;;;;;;;;;24.23;60.76;101220.66;5091690;28;19920;-48
2023/06/19 07:48:01;;;;;;;;;;;;;;;24.21;60.22;101224.22;5120923;27;19919;-49
2023/06/19 07:50:26;;;;;;;;;;;;;;;24.20;59.46;101227.72;5121808;27;19915;-48
2023/06/19 07:52:52;;;;;;;;;;;;;;;24.29;60.53;101217.00;5091860;28;19926;-50
2023/06/19 07:55:17;;;;;;;;;;;;;;;24.35;57.46;101222.16;5109610;28;19924;-51
2023/06/19 07:57:42;;;;;;;;;;;;;;;24.21;59.91;101216.34;5116753;27;19950;-47
2023/06/19 08:00:10;;;;;;;;;;;;;;;24.40;58.24;101216.81;5110538;27;19922;-48
2023/06/19 08:02:36;;;;;;;;;;;;;;;24.58;59.71;101217.22;5116702;27;19920;-48
2023/06/19 08:05:02;;;;;;;;;;;;;;;24.66;57.56;101218.78;5110538;27;20423;-46
2023/06/19 08:07:27;;;;;;;;;;;;;;;24.42;56.86;101223.75;5081627;28;19932;-47
2023/06/19 08:09:53;;;;;;;;;;;;;;;24.31;58.05;101228.34;5109928;28;19923;-51
2023/06/19 08:12:18;;;;;;;;;;;;;;;24.06;58.57;101228.91;5111503;28;20212;-50
2023/06/19 08:14:43;;;;;;;;;;;;;;;23.94;59.00;101239.66;5110923;27;19965;-50
2023/06/19 08:17:08;;;;;;;;;;;;;;;24.16;58.74;101228.72;5120779;27;19916;-51
2023/06/19 08:19:34;;;;;;;;;;;;;;;24.29;57.74;101236.28;5115157;27;19961;-49
2023/06/19 08:21:59;;;;;;;;;;;;;;;24.34;57.49;101230.94;5082301;28;20011;-50
2023/06/19 08:24:24;;;;;;;;;;;;;;;24.42;58.19;101231.63;5116698;27;20037;-49
2023/06/19 08:26:50;;;;;;;;;;;;;;;24.50;59.05;101232.28;5117237;27;19920;-49
2023/06/19 08:29:16;;;;;;;;;;;;;;;24.71;55.98;101235.31;5115887;27;20325;-46
2023/06/19 08:31:42;;;;;;;;;;;;;;;24.72;57.30;101232.66;5112004;27;19920;-48
2023/06/19 08:34:09;;;;;;;;;;;;;;;24.79;55.74;101233.38;5102727;27;19924;-47
2023/06/19 08:36:34;;;;;;;;;;;;;;;24.72;56.14;101222.13;5119048;28;19924;-49
2023/06/19 08:38:59;;;;;;;;;;;;;;;24.81;56.02;101218.41;5107989;28;19922;-47
2023/06/19 08:41:25;;;;;;;;;;;;;;;24.95;56.19;101236.47;5110321;27;20011;-45
2023/06/19 08:43:50;;;;;;;;;;;;;;;24.99;55.76;101232.84;5118032;27;19920;-49
2023/06/19 08:46:18;;;;;;;;;;;;;;;24.99;56.53;101243.38;5108488;28;19924;-47
2023/06/19 08:48:44;;;;;;;;;;;;;;;24.90;56.01;101249.75;5112261;28;19919;-48
2023/06/19 08:51:10;;;;;;;;;;;;;;;24.69;55.73;101255.53;5105853;28;19924;-47
2023/06/19 08:53:36;;;;;;;;;;;;;;;24.68;56.45;101256.44;5103952;28;19915;-47
2023/06/19 08:56:02;;;;;;;;;;;;;;;24.78;56.64;101250.06;5110221;28;20002;-48
2023/06/19 08:58:27;;;;;;;;;;;;;;;24.95;55.11;101261.03;5085864;28;19958;-46
2023/06/19 09:00:53;;;;;;;;;;;;;;;24.87;54.85;101258.59;5117421;28;20583;-47
2023/06/19 09:03:21;;;;;;;;;;;;;;;24.98;54.35;101260.94;5102240;28;19916;-50
2023/06/19 09:05:49;;;;;;;;;;;;;;;25.09;54.66;101266.81;5094098;28;20011;-49
2023/06/19 09:08:22;;;;;;;;;;;;;;;25.35;53.69;101281.06;5112885;28;19916;-48
2023/06/19 09:11:03;;;;;;;;;;;;;;;25.47;52.50;101278.09;5098292;28;20278;-48
2023/06/19 09:13:29;;;;;;;;;;;;;;;25.57;53.51;101276.94;5115195;28;19924;-48
2023/06/19 09:16:04;;;;;;;;;;;;;;;25.43;52.70;101284.38;5123150;28;20402;-49
2023/06/19 09:18:31;;;;;;;;;;;;;;;25.32;53.64;101289.06;5115943;28;19923;-46
2023/06/19 09:20:56;;;;;;;;;;;;;;;25.22;51.46;101284.91;5111274;28;19916;-47
2023/06/19 09:23:21;;;;;;;;;;;;;;;25.02;52.03;101282.78;5122851;28;19912;-48
2023/06/19 09:25:51;;;;;;;;;;;;;;;24.90;53.05;101281.31;5120845;28;20286;-48
2023/06/19 09:28:20;;;;;;;;;;;;;;;24.91;53.22;101293.56;5117044;28;19923;-46
2023/06/19 09:30:59;;;;;;;;;;;;;;;24.88;53.48;101302.41;5119568;28;20408;-48
2023/06/19 09:33:28;;;;;;;;;;;;;;;25.06;53.71;101290.59;5124534;28;19911;-59
2023/06/19 09:35:55;;;;;;;;;;;;;;;25.18;53.26;101299.94;5108435;28;19915;-59
2023/06/19 09:38:21;;;;;;;;;;;;;;;25.34;53.69;101284.59;5107827;28;19973;-58
2023/06/19 09:40:47;;;;;;;;;;;;;;;25.47;52.78;101290.41;5110248;28;20316;-59
2023/06/19 09:43:15;;;;;;;;;;;;;;;25.50;52.38;101292.97;5109808;28;19965;-59
2023/06/19 09:45:40;;;;;;;;;;;;;;;25.56;52.24;101296.28;5108669;28;19921;-58
2023/06/19 09:48:09;;;;;;;;;;;;;;;25.72;51.97;101301.97;5112979;27;20014;-59
2023/06/19 09:50:35;;;;;;;;;;;;;;;25.87;51.00;101293.69;5117107;27;19964;-59
2023/06/19 09:53:01;;;;;;;;;;;;;;;25.79;51.54;101300.09;5113573;28;20012;-59
2023/06/19 09:55:30;;;;;;;;;;;;;;;25.79;50.55;101300.09;5125109;27;20426;-59
2023/06/19 09:57:56;;;;;;;;;;;;;;;25.66;51.02;101303.03;5113285;28;20176;-59
2023/06/19 10:00:30;;;;;;;;;;;;;;;25.61;51.53;101299.66;5124496;27;20444;-59
2023/06/19 10:02:58;;;;;;;;;;;;;;;25.53;52.54;101304.25;5117350;27;19916;-60
2023/06/19 10:05:30;;;;;;;;;;;;;;;25.63;51.67;101297.84;5117055;27;20364;-60
2023/06/19 10:07:59;;;;;;;;;;;;;;;25.56;51.09;101306.81;5117095;27;19916;-59
2023/06/19 10:10:26;;;;;;;;;;;;;;;25.41;51.43;101300.19;5115223;27;19924;-60
2023/06/19 10:12:52;;;;;;;;;;;;;;;25.39;52.12;101304.63;5115125;27;20010;-60
2023/06/19 10:15:17;;;;;;;;;;;;;;;25.40;52.46;101310.75;5120427;27;19927;-58
2023/06/19 10:17:48;;;;;;;;;;;;;;;25.35;52.11;101302.97;5111895;27;19912;-59
2023/06/19 10:20:22;;;;;;;;;;;;;;;25.43;52.16;101305.44;5120571;27;20267;-58
2023/06/19 10:22:51;;;;;;;;;;;;;;;25.54;52.45;101308.66;5122518;27;19927;-57
2023/06/19 10:25:23;;;;;;;;;;;;;;;25.58;51.34;101305.00;5125462;27;19969;-58
2023/06/19 10:27:52;;;;;;;;;;;;;;;25.61;51.52;101310.19;5121596;27;20035;-59
2023/06/19 10:30:20;;;;;;;;;;;;;;;25.48;51.33;101311.44;5122860;27;19927;-58
2023/06/19 10:32:49;;;;;;;;;;;;;;;25.41;52.44;101305.44;5120409;27;19918;-59
2023/06/19 10:35:15;;;;;;;;;;;;;;;25.62;50.99;101314.56;5104802;27;19970;-59
2023/06/19 10:37:40;;;;;;;;;;;;;;;25.86;50.75;101309.56;5117431;27;20350;-58
2023/06/19 10:40:10;;;;;;;;;;;;;;;26.07;49.77;101314.19;5094573;28;19916;-58
2023/06/19 10:42:44;;;;;;;;;;;;;;;26.10;48.20;101308.84;5112843;27;19915;-58
2023/06/19 10:45:11;;;;;;;;;;;;;;;26.10;48.46;101319.38;5111375;27;19961;-59
2023/06/19 10:47:40;;;;;;;;;;;;;;;26.11;48.80;101315.84;5110604;28;19916;-59
2023/06/19 10:50:13;;;;;;;;;;;;;;;26.07;49.29;101306.28;5108492;28;19916;-58
2023/06/19 10:52:42;;;;;;;;;;;;;;;26.07;49.07;101303.66;5111826;27;19923;-59
2023/06/19 10:55:08;;;;;;;;;;;;;;;26.03;48.53;101307.31;5121498;27;19923;-58
2023/06/19 10:57:33;;;;;;;;;;;;;;;25.95;49.22;101311.91;5120227;27;19927;-59
2023/06/19 10:59:59;;;;;;;;;;;;;;;26.00;49.53;101310.00;5115742;27;19963;-58
2023/06/19 11:02:25;;;;;;;;;;;;;;;26.05;49.53;101310.75;5103093;27;19929;-60
2023/06/19 11:04:54;;;;;;;;;;;;;;;26.26;49.76;101313.66;5090755;28;19970;-59
2023/06/19 11:07:19;;;;;;;;;;;;;;;26.45;48.21;101309.56;5106927;27;19919;-60
2023/06/19 11:09:44;;;;;;;;;;;;;;;26.51;47.66;101314.66;5119041;27;19922;-50
2023/06/19 11:12:10;;;;;;;;;;;;;;;26.45;47.37;101305.19;5119603;27;19920;-50
2023/06/19 11:14:39;;;;;;;;;;;;;;;26.57;48.89;101306.56;5117053;27;19916;-50
2023/06/19 11:17:05;;;;;;;;;;;;;;;26.78;46.79;101301.53;5111040;28;20236;-49
2023/06/19 11:19:30;;;;;;;;;;;;;;;26.89;47.06;101305.53;5118193;27;20025;-48
2023/06/19 11:21:57;;;;;;;;;;;;;;;26.88;46.75;101300.31;5112742;27;19951;-49
2023/06/19 11:24:22;;;;;;;;;;;;;;;26.77;46.65;101302.44;5116605;27;19922;-60
2023/06/19 11:26:49;;;;;;;;;;;;;;;26.89;45.18;101300.25;5108353;28;19915;-59
2023/06/19 11:29:16;;;;;;;;;;;;;;;27.04;43.91;101300.66;5104737;28;19912;-58
2023/06/19 11:31:41;;;;;;;;;;;;;;;27.12;44.98;101302.19;5110595;27;20262;-58
2023/06/19 11:34:07;;;;;;;;;;;;;;;27.10;44.38;101298.72;5101708;28;19920;-58
2023/06/19 11:36:32;;;;;;;;;;;;;;;27.10;44.35;101303.97;5092393;27;19923;-57
2023/06/19 11:38:57;;;;;;;;;;;;;;;27.14;44.99;101295.06;5111479;27;19978;-58
2023/06/19 11:41:27;;;;;;;;;;;;;;;27.27;44.84;101299.00;5110859;27;19986;-59
2023/06/19 11:43:58;;;;;;;;;;;;;;;27.33;45.27;101286.50;5105247;28;19916;-58
2023/06/19 11:46:27;;;;;;;;;;;;;;;27.32;43.97;101283.00;5114487;27;19937;-59
2023/06/19 11:48:53;;;;;;;;;;;;;;;27.24;44.24;101285.03;5089823;28;19916;-61
2023/06/19 11:51:18;;;;;;;;;;;;;;;27.07;43.14;101284.78;5112547;27;19915;-60
2023/06/19 11:53:43;;;;;;;;;;;;;;;27.07;43.68;101282.13;5115775;27;19915;-59
2023/06/19 11:56:09;;;;;;;;;;;;;;;27.04;43.56;101277.75;5112424;27;19928;-59
2023/06/19 11:58:36;;;;;;;;;;;;;;;26.84;45.51;101273.16;5113734;27;20233;-61
2023/06/19 12:01:02;;;;;;;;;;;;;;;26.82;44.36;101269.72;5112240;27;19985;-58
2023/06/19 12:03:27;;;;;;;;;;;;;;;26.78;43.84;101273.38;5113637;27;19939;-58
2023/06/19 12:05:52;;;;;;;;;;;;;;;26.81;43.02;101272.38;5110614;28;19955;-60
2023/06/19 12:08:18;;;;;;;;;;;;;;;26.94;42.63;101271.94;5103707;28;19947;-59
2023/06/19 12:10:43;;;;;;;;;;;;;;;27.05;43.35;101266.28;5101034;28;20274;-60
2023/06/19 12:13:08;;;;;;;;;;;;;;;27.04;43.22;101280.41;5111748;27;19955;-60
2023/06/19 12:15:34;;;;;;;;;;;;;;;27.02;44.11;101279.59;5113558;27;19966;-58
2023/06/19 12:17:59;;;;;;;;;;;;;;;26.99;43.36;101279.69;5109678;28;19915;-61
2023/06/19 12:20:25;;;;;;;;;;;;;;;26.93;43.73;101278.13;5117013;27;19941;-60
2023/06/19 12:22:50;;;;;;;;;;;;;;;27.05;42.63;101286.53;5112990;27;20332;-59
2023/06/19 12:25:15;;;;;;;;;;;;;;;27.11;42.35;101284.59;5120401;27;20378;-60
2023/06/19 12:27:41;;;;;;;;;;;;;;;27.32;42.51;101287.44;5110794;27;19923;-60
2023/06/19 12:30:07;;;;;;;;;;;;;;;27.49;42.45;101285.91;5110765;28;19926;-61